Time;durP1;ratioP1;P1;durP2;ratioP2;P2;SDS_P1;SDS_P2;PMS_P1;PMS_P2;Temp;Humidity;BMP_temperature;BMP_pressure;BME280_temperature;BME280_humidity;BME280_pressure;Samples;Min_cycle;Max_cycle;Signal;HPM_P1;HPM_P2
2021/11/03 00:00:17;;;;;;;75.25;37.78;;;;;;;;;;4406246;32;19937;-74
2021/11/03 00:02:44;;;;;;;;;;;;;;;;;;4406195;32;20062;-74
2021/11/03 00:05:19;;;;;;;135.45;50.30;;;;;;;;;;4420927;32;19933;-75
2021/11/03 00:07:45;;;;;;;59.05;33.55;;;;;;;;;;4412441;32;20066;-74
2021/11/03 00:10:31;;;;;;;;;;;;;;;;;;4408236;32;20360;-74
2021/11/03 00:13:22;;;;;;;50.08;28.23;;;;;;;;;;4410800;32;19945;-75
2021/11/03 00:15:47;;;;;;;86.10;37.15;;;;;;;;;;4423147;32;20040;-74
2021/11/03 00:18:13;;;;;;;;;;;;;;;;;;4423220;32;20030;-74
2021/11/03 00:21:01;;;;;;;163.73;43.97;;;;;;;;;;4422684;32;20397;-75
2021/11/03 00:23:27;;;;;;;171.75;44.10;;;;;;;;;;4423370;32;20104;-74
2021/11/03 00:25:52;;;;;;;;;;;;;;;;;;4423722;32;20116;-74
2021/11/03 00:28:20;;;;;;;151.04;45.36;;;;;;;;;;4422981;32;20238;-76
2021/11/03 00:34:15;;;;;;;144.25;46.47;;;;;;;;;;4360425;32;20094;-76
2021/11/03 00:36:40;;;;;;;191.10;47.30;;;;;;;;;;4360939;32;20499;-76
2021/11/03 00:39:08;;;;;;;;;;;;;;;;;;4389893;32;20019;-76
2021/11/03 00:41:33;;;;;;;95.40;38.08;;;;;;;;;;4407758;32;19949;-75
2021/11/03 00:43:58;;;;;;;;;;;;;;;;;;4407802;32;20026;-74
2021/11/03 00:46:24;;;;;;;105.55;44.40;;;;;;;;;;4406957;32;19980;-75
2021/11/03 00:48:52;;;;;;;;;;;;;;;;;;4394155;32;20480;-75
2021/11/03 00:51:23;;;;;;;79.18;38.58;;;;;;;;;;4407455;32;19952;-71
2021/11/03 00:53:49;;;;;;;89.47;44.15;;;;;;;;;;4408071;32;20112;-75
2021/11/03 00:56:37;;;;;;;88.65;43.60;;;;;;;;;;4406849;32;20038;-74
2021/11/03 00:59:22;;;;;;;;;;;;;;;;;;;;;
2021/11/03 01:01:48;;;;;;;72.20;36.10;;;;;;;;;;4415817;32;20060;-74
2021/11/03 01:04:13;;;;;;;;;;;;;;;;;;4407942;32;20023;-74
2021/11/03 01:06:48;;;;;;;59.38;34.33;;;;;;;;;;4421653;32;19941;-75
2021/11/03 01:09:48;;;;;;;70.25;36.60;;;;;;;;;;4408061;32;20022;-74
2021/11/03 01:12:14;;;;;;;59.70;34.35;;;;;;;;;;4421746;32;20049;-75
2021/11/03 01:14:39;;;;;;;;;;;;;;;;;;4422862;32;20018;-75
2021/11/03 01:17:05;;;;;;;57.50;37.03;;;;;;;;;;4421559;32;20386;-76
2021/11/03 01:19:30;;;;;;;;;;;;;;;;;;4422292;32;20049;-75
2021/11/03 01:21:55;;;;;;;77.85;41.55;;;;;;;;;;4421788;32;19947;-75
2021/11/03 01:24:20;;;;;;;;;;;;;;;;;;4422603;32;20332;-75
2021/11/03 01:26:46;;;;;;;113.53;55.03;;;;;;;;;;4408366;32;19941;-75
2021/11/03 01:29:11;;;;;;;;;;;;;;;;;;4422492;32;20064;-75
2021/11/03 01:31:36;;;;;;;95.03;51.47;;;;;;;;;;4407830;32;20278;-74
2021/11/03 01:34:02;;;;;;;;;;;;;;;;;;4422063;32;20065;-75
2021/11/03 01:37:22;;;;;;;;;;;;;;;;;;;;;
2021/11/03 01:42:20;;;;;;;111.88;54.40;;;;;;;;;;4422060;32;20041;-75
2021/11/03 01:47:51;;;;;;;122.78;57.90;;;;;;;;;;4344068;33;20468;-75
2021/11/03 01:50:45;;;;;;;109.82;54.97;;;;;;;;;;4418923;32;20074;-75
2021/11/03 01:53:19;;;;;;;117.95;57.67;;;;;;;;;;4421190;32;20072;-75
2021/11/03 01:55:54;;;;;;;118.10;57.95;;;;;;;;;;4421706;32;20041;-76
2021/11/03 01:58:23;;;;;;;117.18;56.58;;;;;;;;;;4421537;32;20026;-74
2021/11/03 02:00:50;;;;;;;117.65;59.25;;;;;;;;;;4421566;32;20052;-75
2021/11/03 02:03:24;;;;;;;145.20;64.50;;;;;;;;;;4418759;32;20117;-75
2021/11/03 02:05:53;;;;;;;160.12;67.47;;;;;;;;;;4421372;32;20030;-75
2021/11/03 02:08:22;;;;;;;168.82;73.50;;;;;;;;;;4421292;32;20094;-75
2021/11/03 02:10:47;;;;;;;162.05;68.80;;;;;;;;;;4421338;32;20034;-75
2021/11/03 02:13:12;;;;;;;;;;;;;;;;;;4421113;32;20088;-75
2021/11/03 02:15:44;;;;;;;125.15;60.08;;;;;;;;;;4421095;32;19933;-74
2021/11/03 02:18:20;;;;;;;89.28;48.38;;;;;;;;;;4421056;32;20030;-75
2021/11/03 02:20:59;;;;;;;96.35;52.92;;;;;;;;;;4421682;32;20014;-75
2021/11/03 02:23:43;;;;;;;106.95;57.60;;;;;;;;;;4405898;32;20063;-75
2021/11/03 02:26:24;;;;;;;;;;;;;;;;;;;;;
2021/11/03 02:28:50;;;;;;;124.45;57.47;;;;;;;;;;4420660;32;20026;-75
2021/11/03 02:31:15;;;;;;;;;;;;;;;;;;4421082;32;20056;-75
2021/11/03 02:33:41;;;;;;;114.47;54.00;;;;;;;;;;4421172;32;19936;-75
2021/11/03 02:36:09;;;;;;;84.90;47.00;;;;;;;;;;4420871;32;20022;-75
2021/11/03 02:38:36;;;;;;;77.10;44.75;;;;;;;;;;4406947;32;20033;-75
2021/11/03 02:41:03;;;;;;;99.35;51.83;;;;;;;;;;4420984;32;20093;-75
2021/11/03 02:43:31;;;;;;;87.57;49.40;;;;;;;;;;4421067;32;20103;-75
2021/11/03 02:46:16;;;;;;;;;;;;;;;;;;;;;
2021/11/03 02:48:43;;;;;;;71.60;42.67;;;;;;;;;;4421114;32;20056;-75
2021/11/03 02:54:25;;;;;;;59.90;39.35;;;;;;;;;;4359020;32;20058;-75
2021/11/03 02:56:53;;;;;;;66.30;40.20;;;;;;;;;;4358780;32;20405;-75
2021/11/03 02:59:20;;;;;;;70.47;43.15;;;;;;;;;;4410042;32;20053;-74
2021/11/03 03:01:47;;;;;;;59.63;38.95;;;;;;;;;;4420494;32;20026;-75
2021/11/03 03:04:14;;;;;;;68.20;41.90;;;;;;;;;;4406487;32;20057;-74
2021/11/03 03:06:39;;;;;;;72.85;44.72;;;;;;;;;;4406778;32;20034;-74
2021/11/03 03:09:05;;;;;;;;;;;;;;;;;;4407337;32;20363;-74
2021/11/03 03:11:31;;;;;;;96.37;51.80;;;;;;;;;;4418529;32;19964;-74
2021/11/03 03:13:56;;;;;;;98.72;52.78;;;;;;;;;;4420054;32;20026;-74
2021/11/03 03:16:21;;;;;;;;;;;;;;;;;;4420720;32;20065;-74
2021/11/03 03:18:47;;;;;;;99.35;53.05;;;;;;;;;;4420692;32;19938;-74
2021/11/03 03:21:12;;;;;;;;;;;;;;;;;;4420862;32;20118;-74
2021/11/03 03:23:38;;;;;;;103.05;56.15;;;;;;;;;;4419467;32;19947;-75
2021/11/03 03:26:03;;;;;;;;;;;;;;;;;;4420360;32;20029;-74
2021/11/03 03:28:29;;;;;;;108.47;57.30;;;;;;;;;;4419559;32;19980;-74
2021/11/03 03:30:54;;;;;;;;;;;;;;;;;;4421364;32;20038;-74
2021/11/03 03:33:22;;;;;;;101.90;52.67;;;;;;;;;;4420380;32;20255;-74
2021/11/03 03:36:09;;;;;;;81.10;46.58;;;;;;;;;;4406660;32;20404;-74
2021/11/03 03:38:36;;;;;;;86.15;48.85;;;;;;;;;;4421375;32;20018;-74
2021/11/03 03:41:02;;;;;;;73.55;42.50;;;;;;;;;;4424051;32;20022;-74
2021/11/03 03:43:35;;;;;;;;;;;;;;;;;;4409752;32;20047;-74
2021/11/03 03:46:00;;;;;;;77.00;43.60;;;;;;;;;;4410564;32;19952;-74
2021/11/03 03:48:25;;;;;;;;;;;;;;;;;;4424040;32;20470;-74
2021/11/03 03:50:54;;;;;;;103.07;41.05;;;;;;;;;;4423404;32;19966;-74
2021/11/03 03:53:19;;;;;;;172.98;35.78;;;;;;;;;;4423122;32;20076;-74
2021/11/03 03:55:52;;;;;;;;;;;;;;;;;;4423862;32;20025;-75
2021/11/03 03:58:20;;;;;;;115.15;34.53;;;;;;;;;;4424454;32;19952;-74
2021/11/03 04:01:00;;;;;;;124.72;34.10;;;;;;;;;;4422949;32;20347;-74
2021/11/03 04:03:25;;;;;;;126.22;34.63;;;;;;;;;;4423009;32;20109;-74
2021/11/03 04:06:00;;;;;;;;;;;;;;;;;;;;;
2021/11/03 04:08:27;;;;;;;102.20;36.38;;;;;;;;;;4404918;32;20296;-73
2021/11/03 04:10:52;;;;;;;;;;;;;;;;;;4408486;32;20065;-74
2021/11/03 04:13:56;;;;;;;146.52;46.60;;;;;;;;;;4408044;32;20290;-74
2021/11/03 04:16:21;;;;;;;68.47;35.60;;;;;;;;;;4404912;32;20046;-74
2021/11/03 04:18:46;;;;;;;;;;;;;;;;;;4407951;32;20069;-74
2021/11/03 04:21:15;;;;;;;201.27;53.55;;;;;;;;;;4407641;32;19972;-74
2021/11/03 04:24:06;;;;;;;169.25;46.50;;;;;;;;;;4407965;32;20030;-74
2021/11/03 04:27:09;;;;;;;134.18;40.20;;;;;;;;;;4331116;33;20043;-74
2021/11/03 04:29:34;;;;;;;178.43;52.20;;;;;;;;;;4318853;33;20032;-74
2021/11/03 04:32:06;;;;;;;;;;;;;;;;;;4378282;32;20196;-74
2021/11/03 04:37:20;;;;;;;169.77;55.85;;;;;;;;;;4395185;32;20047;-74
2021/11/03 04:39:47;;;;;;;;;;;;;;;;;;4407632;32;20060;-74
2021/11/03 04:42:12;;;;;;;105.47;42.78;;;;;;;;;;4407426;32;19961;-74
2021/11/03 04:44:38;;;;;;;;;;;;;;;;;;4407631;32;20177;-73
2021/11/03 04:47:03;;;;;;;115.22;41.80;;;;;;;;;;4408098;32;20266;-74
2021/11/03 04:50:12;;;;;;;;;;;;;;;;;;;;;
2021/11/03 04:52:36;;;;;;;261.33;50.42;;;;;;;;;;4401559;32;20303;-74
2021/11/03 04:55:36;;;;;;;224.77;52.35;;;;;;;;;;4393358;32;20060;-74
2021/11/03 04:58:23;;;;;;;;;;;;;;;;;;;;;
2021/11/03 05:04:00;;;;;;;215.20;53.97;;;;;;;;;;4407201;32;20114;-74
2021/11/03 05:12:38;;;;;;;179.80;51.05;;;;;;;;;;4422679;32;20079;-74
2021/11/03 05:15:04;;;;;;;146.70;49.53;;;;;;;;;;4422036;32;20025;-74
2021/11/03 05:20:34;;;;;;;56.25;37.85;;;;;;;;;;4374896;32;19930;-73
2021/11/03 05:23:08;;;;;;;103.30;52.42;;;;;;;;;;4419764;32;20052;-74
2021/11/03 05:25:43;;;;;;;88.40;49.35;;;;;;;;;;4407952;32;20068;-74
2021/11/03 05:28:10;;;;;;;82.32;45.05;;;;;;;;;;4421713;32;20022;-74
2021/11/03 05:30:36;;;;;;;101.90;51.13;;;;;;;;;;4422296;32;20416;-75
2021/11/03 05:33:01;;;;;;;101.28;49.00;;;;;;;;;;4422116;32;20022;-74
2021/11/03 05:35:29;;;;;;;;;;;;;;;;;;4421960;32;20449;-75
2021/11/03 05:38:29;;;;;;;89.07;48.45;;;;;;;;;;4421733;32;19958;-75
2021/11/03 05:41:38;;;;;;;70.97;43.35;;;;;;;;;;4359758;32;20090;-74
2021/11/03 05:44:20;;;;;;;78.57;44.38;;;;;;;;;;4369566;32;20042;-74
2021/11/03 05:47:05;;;;;;;70.80;42.20;;;;;;;;;;4406981;32;20118;-75
2021/11/03 05:50:08;;;;;;;90.12;44.47;;;;;;;;;;4405454;32;20076;-75
2021/11/03 05:55:43;;;;;;;143.62;53.50;;;;;;;;;;4344470;33;20102;-75
2021/11/03 05:58:09;;;;;;;86.40;44.83;;;;;;;;;;4349301;33;20093;-74
2021/11/03 06:00:37;;;;;;;;;;;;;;;;;;4359147;32;20043;-74
2021/11/03 06:03:12;;;;;;;96.97;47.78;;;;;;;;;;4359418;32;19944;-75
2021/11/03 06:06:00;;;;;;;155.67;49.90;;;;;;;;;;4417723;32;20022;-75
2021/11/03 06:08:25;;;;;;;66.57;35.85;;;;;;;;;;4431795;32;20041;-75
2021/11/03 06:10:53;;;;;;;;;;;;;;;;;;4437073;32;20082;-75
2021/11/03 06:13:39;;;;;;;65.03;42.05;;;;;;;;;;4436577;32;19953;-74
2021/11/03 06:25:42;;;;;;;;;;;;;;;;;;;;;
2021/11/03 06:28:18;;;;;;;;;;;;;;;;;;;;;
2021/11/03 06:31:13;;;;;;;75.68;42.22;;;;;;;;;;4405094;32;20287;-75
2021/11/03 06:34:04;;;;;;;77.35;41.80;;;;;;;;;;4346400;32;20027;-75
2021/11/03 06:36:39;;;;;;;;;;;;;;;;;;;;;
2021/11/03 06:39:17;;;;;;;60.33;41.65;;;;;;;;;;4408900;32;20378;-76
2021/11/03 06:41:43;;;;;;;62.20;40.42;;;;;;;;;;4421159;32;20137;-73
2021/11/03 06:44:29;;;;;;;;;;;;;;;;;;4420590;32;20127;-75
2021/11/03 06:50:33;;;;;;;63.85;41.95;;;;;;;;;;4420633;32;20383;-76
2021/11/03 06:53:15;;;;;;;;;;;;;;;;;;;;;
2021/11/03 06:56:28;;;;;;;61.72;42.42;;;;;;;;;;4370607;32;20434;-74
2021/11/03 06:58:53;;;;;;;63.80;42.15;;;;;;;;;;4406914;32;20402;-76
2021/11/03 07:01:18;;;;;;;;;;;;;;;;;;4420634;32;20041;-75
2021/11/03 07:03:44;;;;;;;59.38;38.42;;;;;;;;;;4406190;32;19936;-74
2021/11/03 07:06:10;;;;;;;;;;;;;;;;;;4420639;32;20025;-75
2021/11/03 07:08:42;;;;;;;66.82;41.35;;;;;;;;;;4420183;32;19968;-74
2021/11/03 07:11:11;;;;;;;67.68;42.00;;;;;;;;;;4407078;32;20041;-72
2021/11/03 07:13:37;;;;;;;72.05;46.63;;;;;;;;;;4419832;32;20430;-75
2021/11/03 07:16:02;;;;;;;;;;;;;;;;;;4415765;32;20062;-77
2021/11/03 07:18:32;;;;;;;71.35;45.42;;;;;;;;;;4420023;32;19940;-74
2021/11/03 07:21:03;;;;;;;61.78;42.38;;;;;;;;;;4420379;32;20014;-75
2021/11/03 07:23:28;;;;;;;94.47;51.60;;;;;;;;;;4420328;32;20415;-76
2021/11/03 07:25:54;;;;;;;;;;;;;;;;;;4420296;32;20026;-77
2021/11/03 07:28:25;;;;;;;60.40;37.35;;;;;;;;;;4406316;32;19936;-73
2021/11/03 07:30:51;;;;;;;63.05;40.10;;;;;;;;;;4414300;32;20030;-75
2021/11/03 07:33:24;;;;;;;;;;;;;;;;;;4405584;32;20229;-75
2021/11/03 07:35:58;;;;;;;53.80;37.10;;;;;;;;;;4415363;32;19948;-75
2021/11/03 07:38:24;;;;;;;54.08;36.78;;;;;;;;;;4403595;32;20137;-75
2021/11/03 07:40:49;;;;;;;;;;;;;;;;;;4405220;32;20071;-75
2021/11/03 07:43:33;;;;;;;73.38;38.32;;;;;;;;;;4405294;32;19992;-75
2021/11/03 07:46:18;;;;;;;70.70;41.45;;;;;;;;;;4401899;32;20026;-75
2021/11/03 07:48:56;;;;;;;87.57;43.35;;;;;;;;;;4413469;32;20026;-76
2021/11/03 07:51:27;;;;;;;67.87;38.88;;;;;;;;;;4420447;32;20073;-75
2021/11/03 07:53:58;;;;;;;65.87;38.75;;;;;;;;;;4420590;32;20200;-75
2021/11/03 07:56:36;;;;;;;68.40;37.83;;;;;;;;;;4419909;32;20455;-76
2021/11/03 07:59:01;;;;;;;59.08;38.60;;;;;;;;;;4420007;32;20045;-76
2021/11/03 08:01:45;;;;;;;;;;;;;;;;;;4420255;32;20042;-75
2021/11/03 08:07:18;;;;;;;44.53;34.20;;;;;;;;;;4377135;32;20026;-75
2021/11/03 08:09:46;;;;;;;;;;;;;;;;;;4403683;32;20034;-76
2021/11/03 08:12:12;;;;;;;48.80;34.53;;;;;;;;;;4404710;32;19951;-74
2021/11/03 08:17:41;;;;;;;39.00;30.88;;;;;;;;;;4387529;32;19976;-75
2021/11/03 08:20:06;;;;;;;;;;;;;;;;;;4370062;32;20042;-75
2021/11/03 08:25:36;;;;;;;56.42;39.97;;;;;;;;;;4400856;32;20388;-76
2021/11/03 08:28:02;;;;;;;;;;;;;;;;;;4406904;32;20022;-75
2021/11/03 08:30:37;;;;;;;;;;;;;;;;;;;;;
2021/11/03 08:33:37;;;;;;;51.58;37.00;;;;;;;;;;4405271;32;20100;-76
2021/11/03 08:36:26;;;;;;;58.33;42.08;;;;;;;;;;4394644;32;20026;-75
2021/11/03 08:39:03;;;;;;;52.72;37.28;;;;;;;;;;4406124;32;20053;-76
2021/11/03 08:41:38;;;;;;;49.80;38.05;;;;;;;;;;4407961;32;20030;-76
2021/11/03 08:44:27;;;;;;;52.62;39.47;;;;;;;;;;4407576;32;20092;-78
2021/11/03 08:46:56;;;;;;;53.85;39.40;;;;;;;;;;4402426;32;20115;-75
2021/11/03 08:52:25;;;;;;;42.75;33.83;;;;;;;;;;4360276;32;20054;-75
2021/11/03 08:55:05;;;;;;;42.20;34.00;;;;;;;;;;4390694;32;20348;-75
2021/11/03 08:57:56;;;;;;;49.08;34.90;;;;;;;;;;4391112;32;20043;-75
2021/11/03 09:00:40;;;;;;;40.10;33.33;;;;;;;;;;4397141;32;20030;-76
2021/11/03 09:03:18;;;;;;;41.90;34.38;;;;;;;;;;4407205;32;20333;-76
2021/11/03 09:06:13;;;;;;;38.92;32.35;;;;;;;;;;4406992;32;20066;-76
2021/11/03 09:08:57;;;;;;;41.78;33.80;;;;;;;;;;4412951;32;20101;-75
2021/11/03 09:11:22;;;;;;;44.88;35.35;;;;;;;;;;4422096;32;20030;-76
2021/11/03 09:13:48;;;;;;;;;;;;;;;;;;4422536;32;20384;-76
2021/11/03 09:16:16;;;;;;;43.00;35.60;;;;;;;;;;4422173;32;19955;-75
2021/11/03 09:18:41;;;;;;;47.53;37.92;;;;;;;;;;4420297;32;20067;-75
2021/11/03 09:21:08;;;;;;;;;;;;;;;;;;4407045;32;20023;-76
2021/11/03 09:23:34;;;;;;;46.05;35.78;;;;;;;;;;4406892;32;19983;-75
2021/11/03 09:25:59;;;;;;;;;;;;;;;;;;4414495;32;20034;-76
2021/11/03 09:28:26;;;;;;;41.90;35.55;;;;;;;;;;4410886;32;19948;-75
2021/11/03 09:31:01;;;;;;;44.55;38.08;;;;;;;;;;4406248;32;20111;-76
2021/11/03 09:33:26;;;;;;;45.00;38.15;;;;;;;;;;4407205;32;20027;-75
2021/11/03 09:35:51;;;;;;;;;;;;;;;;;;4407048;32;20022;-76
2021/11/03 09:38:34;;;;;;;43.42;34.36;;;;;;;;;;4406074;32;19987;-75
2021/11/03 09:41:20;;;;;;;43.25;34.45;;;;;;;;;;4406676;32;20104;-76
2021/11/03 09:43:48;;;;;;;47.13;37.92;;;;;;;;;;4406336;32;20454;-75
2021/11/03 09:46:45;;;;;;;39.53;32.85;;;;;;;;;;4410062;32;20061;-76
2021/11/03 09:49:11;;;;;;;;;;;;;;;;;;4420587;32;20341;-76
2021/11/03 09:51:49;;;;;;;44.08;36.90;;;;;;;;;;4420264;32;19994;-76
2021/11/03 09:58:04;;;;;;;50.92;36.65;;;;;;;;;;4332900;32;20078;-75
2021/11/03 10:00:55;;;;;;;50.47;36.53;;;;;;;;;;4329972;33;20032;-75
2021/11/03 10:03:41;;;;;;;46.03;35.83;;;;;;;;;;4411238;32;20420;-74
2021/11/03 10:06:11;;;;;;;43.28;34.85;;;;;;;;;;4418964;32;20029;-76
2021/11/03 10:08:39;;;;;;;44.83;33.60;;;;;;;;;;4421285;32;20042;-76
2021/11/03 10:11:24;;;;;;;47.30;34.75;;;;;;;;;;4420546;32;20052;-76
2021/11/03 10:13:50;;;;;;;45.50;32.72;;;;;;;;;;4405969;32;20372;-75
2021/11/03 10:16:15;;;;;;;;;;;;;;;;;;4406589;32;20038;-76
2021/11/03 10:18:59;;;;;;;39.70;31.02;;;;;;;;;;4420365;32;19937;-76
2021/11/03 10:21:33;;;;;;;43.25;34.63;;;;;;;;;;4407387;32;20068;-75
2021/11/03 10:24:01;;;;;;;44.85;34.53;;;;;;;;;;4420755;32;20384;-75
2021/11/03 10:26:33;;;;;;;41.10;32.70;;;;;;;;;;4420279;32;20026;-75
2021/11/03 10:29:11;;;;;;;42.75;34.15;;;;;;;;;;4420463;32;20030;-75
2021/11/03 10:31:41;;;;;;;39.33;32.08;;;;;;;;;;4420884;32;20407;-75
2021/11/03 10:34:25;;;;;;;36.55;32.55;;;;;;;;;;4420469;32;20049;-75
2021/11/03 10:37:00;;;;;;;33.95;29.02;;;;;;;;;;4419963;32;20411;-75
2021/11/03 10:39:26;;;;;;;36.78;29.90;;;;;;;;;;4420204;32;20018;-76
2021/11/03 10:41:54;;;;;;;36.55;29.15;;;;;;;;;;4420470;32;20364;-74
2021/11/03 10:44:21;;;;;;;39.03;29.37;;;;;;;;;;4420346;32;20075;-75
2021/11/03 10:46:58;;;;;;;36.22;28.12;;;;;;;;;;4420167;32;20030;-75
2021/11/03 10:49:43;;;;;;;;;;;;;;;;;;;;;
2021/11/03 10:52:09;;;;;;;34.28;27.02;;;;;;;;;;4420183;32;20076;-75
2021/11/03 10:54:34;;;;;;;;;;;;;;;;;;4420854;32;20029;-74
2021/11/03 10:57:14;;;;;;;21.35;16.65;;;;;;;;;;4419623;32;19929;-75
2021/11/03 10:59:47;;;;;;;19.92;16.02;;;;;;;;;;4406230;32;20034;-76
2021/11/03 11:02:22;;;;;;;19.20;15.43;;;;;;;;;;4420491;32;20075;-75
2021/11/03 11:04:48;;;;;;;20.10;15.85;;;;;;;;;;4420444;32;20030;-76
2021/11/03 11:07:26;;;;;;;19.20;16.02;;;;;;;;;;4419653;32;20375;-76
2021/11/03 11:10:10;;;;;;;20.30;15.35;;;;;;;;;;4418524;32;20058;-75
2021/11/03 11:12:40;;;;;;;21.98;13.82;;;;;;;;;;4404560;32;20034;-75
2021/11/03 11:15:05;;;;;;;15.18;12.30;;;;;;;;;;4415715;32;20063;-76
2021/11/03 11:17:32;;;;;;;;;;;;;;;;;;4419797;32;20022;-75
2021/11/03 11:20:06;;;;;;;17.20;13.65;;;;;;;;;;4405040;32;19956;-75
2021/11/03 11:22:40;;;;;;;16.35;13.40;;;;;;;;;;4420331;32;20025;-76
2021/11/03 11:25:09;;;;;;;25.95;13.00;;;;;;;;;;4420348;32;20046;-75
2021/11/03 11:27:37;;;;;;;18.95;12.57;;;;;;;;;;4418090;32;20431;-76
2021/11/03 11:30:17;;;;;;;13.27;10.70;;;;;;;;;;4419694;32;20027;-75
2021/11/03 11:32:52;;;;;;;16.85;11.00;;;;;;;;;;4406292;32;20097;-76
2021/11/03 11:35:23;;;;;;;14.68;12.95;;;;;;;;;;4420447;32;20412;-75
2021/11/03 11:37:56;;;;;;;19.15;17.17;;;;;;;;;;4406254;32;20022;-75
2021/11/03 11:40:28;;;;;;;21.00;18.85;;;;;;;;;;4420435;32;20082;-75
2021/11/03 11:42:58;;;;;;;24.10;19.17;;;;;;;;;;4406328;32;20065;-75
2021/11/03 11:45:27;;;;;;;26.05;20.45;;;;;;;;;;4420609;32;20061;-74
2021/11/03 11:47:53;;;;;;;32.15;21.85;;;;;;;;;;4420443;32;20052;-74
2021/11/03 11:50:34;;;;;;;30.98;24.25;;;;;;;;;;4406200;32;20109;-74
2021/11/03 11:53:00;;;;;;;34.22;24.00;;;;;;;;;;4420109;32;20056;-72
2021/11/03 11:55:25;;;;;;;;;;;;;;;;;;4407012;32;20041;-74
2021/11/03 11:58:06;;;;;;;30.98;24.92;;;;;;;;;;4420387;32;20295;-74
2021/11/03 12:00:31;;;;;;;26.85;22.45;;;;;;;;;;4421475;32;20022;-73
2021/11/03 12:02:57;;;;;;;;;;;;;;;;;;4409721;32;20025;-74
2021/11/03 12:05:25;;;;;;;25.12;21.87;;;;;;;;;;4421981;32;20275;-72
2021/11/03 12:08:08;;;;;;;28.12;24.08;;;;;;;;;;4423009;32;20026;-74
2021/11/03 12:10:38;;;;;;;27.98;24.05;;;;;;;;;;4421453;32;20142;-75
2021/11/03 12:13:12;;;;;;;25.65;22.67;;;;;;;;;;4397424;32;20085;-73
2021/11/03 12:15:59;;;;;;;30.52;24.67;;;;;;;;;;4413946;32;20054;-74
2021/11/03 12:18:33;;;;;;;38.65;24.80;;;;;;;;;;4410230;32;20052;-74
2021/11/03 12:21:07;;;;;;;28.30;22.95;;;;;;;;;;4408723;32;20029;-74
2021/11/03 12:23:46;;;;;;;29.95;23.38;;;;;;;;;;4397916;32;20496;-74
2021/11/03 12:29:42;;;;;;;27.97;23.57;;;;;;;;;;4360403;32;20078;-74
2021/11/03 12:32:26;;;;;;;24.23;21.62;;;;;;;;;;4359506;32;20369;-74
2021/11/03 12:35:20;;;;;;;27.08;22.75;;;;;;;;;;4415929;32;20070;-74
2021/11/03 12:37:45;;;;;;;28.85;23.87;;;;;;;;;;4401387;32;20094;-72
2021/11/03 12:40:10;;;;;;;;;;;;;;;;;;4409781;32;20379;-74
2021/11/03 12:42:45;;;;;;;26.20;21.98;;;;;;;;;;4385170;32;20284;-75
2021/11/03 12:45:17;;;;;;;27.25;21.50;;;;;;;;;;4400067;32;20179;-74
2021/11/03 12:47:59;;;;;;;23.25;19.15;;;;;;;;;;4400885;32;20458;-75
2021/11/03 12:50:34;;;;;;;23.33;19.85;;;;;;;;;;4381757;32;20384;-71
2021/11/03 12:53:19;;;;;;;24.15;19.40;;;;;;;;;;4394116;32;20089;-75
2021/11/03 12:56:06;;;;;;;;;;;;;;;;;;;;;
2021/11/03 12:58:40;;;;;;;28.38;19.73;;;;;;;;;;4407045;32;20026;-74
2021/11/03 13:01:17;;;;;;;26.50;20.12;;;;;;;;;;4394766;32;20338;-75
2021/11/03 13:03:47;;;;;;;26.50;20.20;;;;;;;;;;4391475;32;20022;-74
2021/11/03 13:06:12;;;;;;;24.95;19.25;;;;;;;;;;4395173;32;20396;-75
2021/11/03 13:08:37;;;;;;;;;;;;;;;;;;4397293;32;20066;-74
2021/11/03 13:11:06;;;;;;;23.85;18.37;;;;;;;;;;4406498;32;19964;-74
2021/11/03 13:13:31;;;;;;;19.92;17.10;;;;;;;;;;4405961;32;20169;-73
2021/11/03 13:15:58;;;;;;;;;;;;;;;;;;4405489;32;20435;-75
2021/11/03 13:18:25;;;;;;;21.90;16.12;;;;;;;;;;4406260;32;19976;-74
2021/11/03 13:20:56;;;;;;;22.45;16.02;;;;;;;;;;4406300;32;20105;-75
2021/11/03 13:23:22;;;;;;;23.30;17.25;;;;;;;;;;4405794;32;20022;-74
2021/11/03 13:25:51;;;;;;;20.85;16.62;;;;;;;;;;4406150;32;20110;-75
2021/11/03 13:28:26;;;;;;;19.83;16.55;;;;;;;;;;4405688;32;20045;-74
2021/11/03 13:30:59;;;;;;;19.75;16.95;;;;;;;;;;4406379;32;20046;-76
2021/11/03 13:33:32;;;;;;;19.45;16.85;;;;;;;;;;4406397;32;20149;-76
2021/11/03 13:35:59;;;;;;;23.98;17.20;;;;;;;;;;4406131;32;20026;-75
2021/11/03 13:38:30;;;;;;;21.10;16.40;;;;;;;;;;4406563;32;20034;-76
2021/11/03 13:40:56;;;;;;;25.83;18.48;;;;;;;;;;4404827;32;20491;-74
2021/11/03 13:43:22;;;;;;;21.80;16.80;;;;;;;;;;4406574;32;20027;-75
2021/11/03 13:45:47;;;;;;;;;;;;;;;;;;4405992;32;20026;-74
2021/11/03 13:48:33;;;;;;;29.40;22.37;;;;;;;;;;4406448;32;20006;-75
2021/11/03 13:51:02;;;;;;;36.20;25.77;;;;;;;;;;4406497;32;20027;-76
2021/11/03 13:53:28;;;;;;;35.88;28.20;;;;;;;;;;4405845;32;20393;-74
2021/11/03 13:55:57;;;;;;;30.52;27.23;;;;;;;;;;4404840;32;20070;-74
2021/11/03 13:58:25;;;;;;;28.67;24.70;;;;;;;;;;4403856;32;20027;-76
2021/11/03 14:01:15;;;;;;;33.72;26.73;;;;;;;;;;4397892;32;20063;-75
2021/11/03 14:03:47;;;;;;;29.75;26.55;;;;;;;;;;4391750;32;20044;-74
2021/11/03 14:06:22;;;;;;;35.85;31.85;;;;;;;;;;4405747;32;20057;-74
2021/11/03 14:08:49;;;;;;;34.13;29.77;;;;;;;;;;4403567;32;20026;-75
2021/11/03 14:11:14;;;;;;;40.12;32.03;;;;;;;;;;4404557;32;20121;-75
2021/11/03 14:13:39;;;;;;;;;;;;;;;;;;4406240;32;20056;-75
2021/11/03 14:16:15;;;;;;;40.45;32.40;;;;;;;;;;4405961;32;20278;-75
2021/11/03 14:18:43;;;;;;;36.00;31.83;;;;;;;;;;4405120;32;20053;-75
2021/11/03 14:21:11;;;;;;;42.55;34.00;;;;;;;;;;4406310;32;20068;-74
2021/11/03 14:23:37;;;;;;;36.95;32.65;;;;;;;;;;4405477;32;20038;-76
2021/11/03 14:26:02;;;;;;;;;;;;;;;;;;4405723;32;20057;-74
2021/11/03 14:28:27;;;;;;;43.53;35.65;;;;;;;;;;4405675;32;19938;-75
2021/11/03 14:30:52;;;;;;;;;;;;;;;;;;4406037;32;20433;-74
2021/11/03 14:33:23;;;;;;;47.72;38.70;;;;;;;;;;4405666;32;19944;-75
2021/11/03 14:35:51;;;;;;;52.00;40.12;;;;;;;;;;4405360;32;20177;-74
2021/11/03 14:38:42;;;;;;;49.00;37.28;;;;;;;;;;4404786;32;20038;-74
2021/11/03 14:41:14;;;;;;;51.53;42.22;;;;;;;;;;4398033;32;20043;-75
2021/11/03 14:43:40;;;;;;;49.90;40.17;;;;;;;;;;4405709;32;20026;-74
2021/11/03 14:46:07;;;;;;;;;;;;;;;;;;4396468;32;20030;-74
2021/11/03 14:48:33;;;;;;;48.35;39.92;;;;;;;;;;4404119;32;19929;-75
2021/11/03 14:50:58;;;;;;;;;;;;;;;;;;4405457;32;20082;-74
2021/11/03 14:53:24;;;;;;;42.45;35.08;;;;;;;;;;4405708;32;19938;-74
2021/11/03 14:55:54;;;;;;;49.05;37.97;;;;;;;;;;4405621;32;20397;-74
2021/11/03 14:58:20;;;;;;;46.10;36.45;;;;;;;;;;4406216;32;20027;-73
2021/11/03 15:01:06;;;;;;;;;;;;;;;;;;4405572;32;20049;-76
2021/11/03 15:03:35;;;;;;;45.03;37.05;;;;;;;;;;4394229;32;20353;-75
2021/11/03 15:06:05;;;;;;;51.63;39.85;;;;;;;;;;4404842;32;20083;-75
2021/11/03 15:08:35;;;;;;;52.47;42.35;;;;;;;;;;4403881;32;20034;-73
2021/11/03 15:11:01;;;;;;;50.60;38.55;;;;;;;;;;4404066;32;20026;-75
2021/11/03 15:13:27;;;;;;;49.67;38.15;;;;;;;;;;4405026;32;20370;-75
2021/11/03 15:15:55;;;;;;;;;;;;;;;;;;4403811;32;20049;-74
2021/11/03 15:18:22;;;;;;;40.97;32.20;;;;;;;;;;4403980;32;20312;-75
2021/11/03 15:20:47;;;;;;;38.83;29.37;;;;;;;;;;4404453;32;20079;-75
2021/11/03 15:23:12;;;;;;;;;;;;;;;;;;4405593;32;20034;-75
2021/11/03 15:25:38;;;;;;;38.95;29.90;;;;;;;;;;4404892;32;20032;-74
2021/11/03 15:28:03;;;;;;;;;;;;;;;;;;4405129;32;20172;-75
2021/11/03 15:30:28;;;;;;;43.47;32.40;;;;;;;;;;4405372;32;19950;-75
2021/11/03 15:32:56;;;;;;;;;;;;;;;;;;4405305;32;20022;-75
2021/11/03 15:35:26;;;;;;;48.78;34.05;;;;;;;;;;4404587;32;19944;-75
2021/11/03 15:37:51;;;;;;;49.45;36.38;;;;;;;;;;4407913;32;20022;-74
2021/11/03 15:40:26;;;;;;;;;;;;;;;;;;4408305;32;20026;-74
2021/11/03 15:43:11;;;;;;;49.33;36.22;;;;;;;;;;4406189;32;20309;-74
2021/11/03 15:45:48;;;;;;;57.90;37.33;;;;;;;;;;4406860;32;20110;-73
2021/11/03 15:48:14;;;;;;;59.13;39.10;;;;;;;;;;4407243;32;20101;-75
2021/11/03 15:50:40;;;;;;;57.22;38.40;;;;;;;;;;4406061;32;20420;-74
2021/11/03 15:53:05;;;;;;;;;;;;;;;;;;4406074;32;20057;-74
2021/11/03 15:55:39;;;;;;;48.28;36.20;;;;;;;;;;4404324;32;19957;-74
2021/11/03 15:58:08;;;;;;;52.08;37.45;;;;;;;;;;4407139;32;20046;-73
2021/11/03 16:00:35;;;;;;;58.92;40.92;;;;;;;;;;4406521;32;20096;-74
2021/11/03 16:03:20;;;;;;;62.47;41.78;;;;;;;;;;4408015;32;20072;-75
2021/11/03 16:05:47;;;;;;;58.50;41.92;;;;;;;;;;4396321;32;20034;-74
2021/11/03 16:08:17;;;;;;;63.15;44.25;;;;;;;;;;4408817;32;20099;-74
2021/11/03 16:10:42;;;;;;;60.88;42.92;;;;;;;;;;4421361;32;20052;-74
2021/11/03 16:13:08;;;;;;;;;;;;;;;;;;4408786;32;20038;-74
2021/11/03 16:15:36;;;;;;;64.53;44.67;;;;;;;;;;4422586;32;19934;-74
2021/11/03 16:18:01;;;;;;;65.43;46.13;;;;;;;;;;4405361;32;20144;-74
2021/11/03 16:20:26;;;;;;;;;;;;;;;;;;4422604;32;20085;-74
2021/11/03 16:23:11;;;;;;;66.93;46.58;;;;;;;;;;4412291;32;20342;-74
2021/11/03 16:25:37;;;;;;;72.05;48.20;;;;;;;;;;4408443;32;20053;-75